Latest Coastal Weather Observations for Cape Nelson

IDS60701

Issued at 11:45 pm CST Monday 22 September 2014 (issued every 10 minutes, with the page automatically refreshed every 10 minutes)

About coastal observations | Map of coastal stations | Coastal observations for SA | Marine services | Other Formats
Station Details ID: 090184 Name: CAPE NELSON LIGHTHOUSE Lat: -38.43 Lon: 141.54 Height: 45.4 m
Data from the previous 72 hours. | See also: Recent months at Cape Nelson
Date/Time
CST
Temp

°C
Wind Pressure Rain
since 9am
mm
Weather Cloud Vis
km
Sea
Height
m
Swell
Dir
 
Speed
knots
Gust
knots
hPa Trend Height
m
Period
s
Dir
22/11:30pm 13.1 NNE 9 12 1024.0 - 0.0 - - - - - - -
22/11:00pm 12.5 NNE 9 11 1024.4 - 0.0 - - - - - - -
22/10:30pm 12.7 NNE 9 12 1024.6 - 0.0 - - - - - - -
22/10:00pm 12.9 NNE 10 13 1024.9 - 0.0 - - - - - - -
22/09:30pm 13.3 NNE 10 13 1025.1 - 0.0 - - - - - - -
22/09:00pm 14.3 NE 10 13 1025.3 - 0.0 - - - - - - -
22/08:30pm 13.9 NE 10 13 1025.4 - 0.0 - - - - - - -
22/08:00pm 14.2 NE 8 11 1025.4 - 0.0 - - - - - - -
22/07:30pm 14.6 ENE 9 12 1025.4 - 0.0 - - - - - - -
22/07:00pm 15.0 E 7 9 1025.5 - 0.0 - - - - - - -
22/06:30pm 15.4 E 8 10 1025.4 - 0.0 - - - - - - -
22/06:00pm 15.6 E 7 10 1025.1 - 0.0 - - - - - - -
22/05:30pm 15.7 ESE 7 9 1024.9 - 0.0 - - - - - - -
22/05:00pm 16.7 ESE 7 9 1024.7 - 0.0 - - - - - - -
22/04:30pm 17.6 ESE 5 6 1024.6 - 0.0 - - - - - - -
22/04:00pm 18.3 SE 6 8 1024.5 - 0.0 - - - - - - -
22/03:30pm 19.1 SE 6 7 1024.5 - 0.0 - - - - - - -
22/03:00pm 19.7 SE 6 8 1024.6 - 0.0 - - - - - - -
22/02:30pm 20.3 SSE 5 7 1024.8 - 0.0 - - - - - - -
22/02:00pm 20.4 SSE 5 7 1025.0 - 0.0 - - - - - - -
22/01:30pm 20.2 SSE 5 7 1025.2 - 0.0 - - - - - - -
22/01:00pm 20.7 SSE 5 8 1025.4 - 0.0 - - - - - - -
22/12:30pm 22.0 NW 7 12 1025.4 - 0.0 - - - - - - -
22/12:00pm 22.0 WNW 8 12 1025.8 - 0.0 - - - - - - -
22/11:30am 21.6 NW 8 12 1026.2 - 0.0 - - - - - - -
22/11:00am 21.9 NNW 9 12 1026.6 - 0.0 - - - - - - -
22/10:30am 20.8 N 8 13 1026.9 - 0.0 - - - - - - -
22/10:00am 19.5 N 9 14 1027.2 - 0.0 - - - - - - -
22/09:30am 19.0 N 9 14 1027.5 - 0.0 - - - - - - -
22/09:00am 17.7 N 9 12 1027.3 - 0.0 - - - - - - -
22/08:30am 16.1 N 10 15 1027.5 - 0.0 - - - - - - -
22/08:00am 14.5 N 9 13 1027.6 - 0.0 - - - - - - -
22/07:30am 13.3 N 10 15 1027.5 - 0.0 - - - - - - -
22/07:00am 11.3 N 10 13 1027.3 - 0.0 - - - - - - -
22/06:30am 8.6 N 7 9 1027.3 - 0.0 - - - - - - -
22/06:00am 7.4 N 7 9 1027.1 - 0.0 - - - - - - -
22/05:30am 8.6 N 8 9 1026.9 - 0.0 - - - - - - -
22/05:00am 8.4 N 8 10 1026.8 - 0.0 - - - - - - -
22/04:30am 8.4 N 7 9 1026.9 - 0.0 - - - - - - -
22/04:00am 7.9 N 7 9 1026.7 - 0.0 - - - - - - -
22/03:30am 7.9 N 10 12 1026.6 - 0.0 - - - - - - -
22/03:00am 8.1 N 10 13 1026.9 - 0.0 - - - - - - -
22/02:30am 7.7 NNE 9 12 1027.1 - 0.0 - - - - - - -
22/02:00am 8.2 NNE 9 11 1027.4 - 0.0 - - - - - - -
22/01:30am 8.8 NNE 10 14 1027.6 - 0.0 - - - - - - -
22/01:00am 9.3 NE 12 15 1027.9 - 0.0 - - - - - - -
22/12:30am 9.9 NE 12 16 1028.1 - 0.0 - - - - - - -
22/12:00am 10.3 NE 11 13 1028.3 - 0.0 - - - - - - -
 
Date/Time
CST
Temp

°C
Wind Pressure Rain
since 9am
mm
Weather Cloud Vis
km
Sea
Height
m
Swell
Dir
 
Speed
knots
Gust
knots
hPa Trend Height
m
Period
s
Dir
21/11:30pm 9.9 NE 11 15 1028.6 - 0.0 - - - - - - -
21/11:00pm 10.1 NE 11 13 1028.9 - 0.0 - - - - - - -
21/10:30pm 11.2 NE 11 15 1029.2 - 0.0 - - - - - - -
21/10:00pm 11.7 ENE 12 16 1029.2 - 0.0 - - - - - - -
21/09:30pm 11.7 ENE 14 18 1029.4 - 0.0 - - - - - - -
21/09:00pm 11.7 ENE 13 17 1029.7 - 0.0 - - - - - - -
21/08:30pm 11.6 E 12 18 1029.8 - 0.0 - - - - - - -
21/08:00pm 11.7 E 11 15 1029.9 - 0.0 - - - - - - -
21/07:30pm 11.7 E 11 16 1029.9 - 0.0 - - - - - - -
21/07:00pm 11.6 E 11 16 1029.7 - 0.0 - - - - - - -
21/06:30pm 11.7 E 11 15 1029.6 - 0.0 - - - - - - -
21/06:00pm 11.6 E 11 14 1029.5 - 0.0 - - - - - - -
21/05:30pm 12.0 E 10 13 1029.5 - 0.0 - - - - - - -
21/05:00pm 12.4 E 10 12 1029.4 - 0.0 - - - - - - -
21/04:30pm 12.9 E 9 12 1029.3 - 0.0 - - - - - - -
21/04:00pm 13.4 E 10 13 1029.3 - 0.0 - - - - - - -
21/03:30pm 13.8 E 9 13 1029.4 - 0.0 - - - - - - -
21/03:00pm 14.3 E 9 12 1029.7 - 0.0 - - - - - - -
21/02:30pm 14.4 E 9 11 1030.2 - 0.0 - - - - - - -
21/02:00pm 14.7 E 9 11 1030.6 - 0.0 - - - - - - -
21/01:30pm 14.7 E 8 10 1030.9 - 0.0 - - - - - - -
21/01:00pm 14.9 E 7 10 1031.2 - 0.0 - - - - - - -
21/12:30pm 14.9 ENE 9 12 1031.7 - 0.0 - - - - - - -
21/12:00pm 14.9 ENE 8 11 1032.0 - 0.0 - - - - - - -
21/11:30am 15.0 E 7 11 1032.3 - 0.0 - - - - - - -
21/11:00am 15.1 E 6 9 1032.7 - 0.0 - - - - - - -
21/10:30am 13.7 ENE 7 10 1032.8 - 0.0 - - - - - - -
21/10:00am 13.6 E 6 8 1032.9 - 0.0 - - - - - - -
21/09:30am 13.5 E 5 7 1033.0 - 0.0 - - - - - - -
21/09:00am 13.7 ENE 5 8 1032.8 - 0.0 - - - - - - -
21/08:30am 13.3 NE 4 6 1032.6 - 0.0 - - - - - - -
21/08:00am 11.6 NNE 4 5 1032.4 - 0.0 - - - - - - -
21/07:30am 11.2 NNE 5 6 1031.9 - 0.0 - - - - - - -
21/07:00am 8.5 NNE 5 7 1031.5 - 0.0 - - - - - - -
21/06:30am 7.0 NNE 5 6 1031.2 - 0.0 - - - - - - -
21/06:00am 6.9 NNE 6 7 1030.9 - 0.0 - - - - - - -
21/05:30am 7.3 NNE 5 6 1030.7 - 0.0 - - - - - - -
21/05:00am 8.1 N 5 6 1030.3 - 0.0 - - - - - - -
21/04:30am 10.6 E 7 11 1030.1 - 0.0 - - - - - - -
21/04:00am 11.1 E 8 12 1030.1 - 0.0 - - - - - - -
21/03:30am 11.5 E 7 10 1030.0 - 0.0 - - - - - - -
21/03:00am 11.7 E 8 10 1030.2 - 0.0 - - - - - - -
21/02:30am 11.9 ESE 6 12 1030.2 - 0.0 - - - - - - -
21/02:00am 11.8 SE 7 11 1030.5 - 0.0 - - - - - - -
21/01:30am 11.7 E 9 13 1030.7 - 0.0 - - - - - - -
21/01:00am 11.6 E 8 11 1030.9 - 0.0 - - - - - - -
21/12:30am 11.4 ESE 6 9 1030.9 - 0.0 - - - - - - -
21/12:00am 11.4 SE 7 11 1031.1 - 0.0 - - - - - - -
 
Date/Time
CST
Temp

°C
Wind Pressure Rain
since 9am
mm
Weather Cloud Vis
km
Sea
Height
m
Swell
Dir
 
Speed
knots
Gust
knots
hPa Trend Height
m
Period
s
Dir
20/11:30pm 11.3 SE 7 10 1031.0 - 0.0 - - - - - - -
20/11:00pm 11.3 SE 7 11 1031.2 - 0.0 - - - - - - -
20/10:30pm 11.4 E 7 11 1031.1 - 0.0 - - - - - - -
20/10:00pm 11.2 ESE 6 9 1031.2 - 0.0 - - - - - - -
20/09:30pm 11.2 ESE 7 9 1031.3 - 0.0 - - - - - - -
20/09:00pm 11.3 E 7 10 1030.9 - 0.0 - - - - - - -
20/08:30pm 11.2 E 8 10 1030.7 - 0.0 - - - - - - -
20/08:00pm 11.6 E 8 11 1030.5 - 0.0 - - - - - - -
20/07:30pm 11.7 ESE 7 12 1030.6 - 0.0 - - - - - - -
20/07:00pm 12.0 ESE 8 12 1030.5 - 0.0 - - - - - - -
20/06:30pm 12.0 ESE 7 10 1030.2 - 0.0 - - - - - - -
20/06:00pm 12.2 E 9 12 1030.0 - 0.0 - - - - - - -
20/05:30pm 12.4 SE 7 9 1029.9 - 0.0 - - - - - - -
20/05:00pm 13.0 SE 7 9 1029.7 - 0.0 - - - - - - -
20/04:30pm 13.9 SSE 9 14 1029.5 - 0.0 - - - - - - -
20/04:00pm 15.1 SSE 6 8 1029.5 - 0.0 - - - - - - -
20/03:30pm 14.7 SSE 6 9 1029.1 - 0.0 - - - - - - -
20/03:00pm 15.1 S 5 7 1028.9 - 0.0 - - - - - - -
20/02:30pm 14.9 S 6 8 1029.0 - 0.0 - - - - - - -
20/02:00pm 15.2 SSE 7 9 1029.0 - 0.0 - - - - - - -
20/01:30pm 15.4 SSE 7 11 1029.0 - 0.0 - - - - - - -
20/01:00pm 15.4 SSE 7 9 1028.9 - 0.0 - - - - - - -
20/12:30pm 15.4 SE 8 10 1028.8 - 0.0 - - - - - - -
20/12:00pm 15.5 SE 7 11 1029.0 - 0.0 - - - - - - -
20/11:30am 15.0 ESE 5 7 1029.1 - 0.0 - - - - - - -
20/11:00am 15.7 ESE 6 8 1029.0 - 0.0 - - - - - - -
20/10:30am 15.9 ESE 5 7 1029.0 - 0.0 - - - - - - -
20/10:00am 14.8 SE 4 6 1029.1 - 0.0 - - - - - - -
20/09:30am 14.6 ESE 5 6 1029.3 - 0.0 - - - - - - -
20/09:00am 14.7 SSE 4 7 1029.4 - 0.0 - - - - - - -
20/08:30am 13.7 SE 7 10 1029.3 - 0.0 - - - - - - -
20/08:00am 13.3 SSE 7 10 1029.1 - 0.0 - - - - - - -
20/07:30am 11.0 SSE 5 8 1028.8 - 0.0 - - - - - - -
20/07:00am 6.7 CALM 0 0 1028.4 - 0.0 - - - - - - -
20/06:30am 4.7 N 1 3 1028.0 - 0.0 - - - - - - -
20/06:00am 7.6 S 5 8 1027.7 - 0.0 - - - - - - -
20/05:30am 6.4 SSE 3 7 1027.4 - 0.0 - - - - - - -
20/05:00am 5.3 CALM 0 0 1027.1 - 0.0 - - - - - - -
20/04:30am 6.5 S 4 6 1026.7 - 0.0 - - - - - - -
20/04:00am 7.5 SSE 4 7 1026.4 - 0.0 - - - - - - -
20/03:30am 9.8 SSE 5 6 1026.2 - 0.0 - - - - - - -
20/03:00am 8.5 S 5 6 1026.0 - 0.0 - - - - - - -
20/02:30am 6.7 NE 3 4 1025.9 - 0.0 - - - - - - -
20/02:00am 7.8 SSE 2 4 1026.0 - 0.0 - - - - - - -
20/01:30am 8.5 NE 3 5 1026.1 - 0.0 - - - - - - -
20/01:00am 10.5 S 4 7 1026.4 - 0.0 - - - - - - -
20/12:30am 10.8 SSE 6 8 1026.4 - 0.0 - - - - - - -
20/12:00am 10.9 S 6 9 1026.4 - 0.0 - - - - - - -
 
Date/Time
CST
Temp

°C
Wind Pressure Rain
since 9am
mm
Weather Cloud Vis
km
Sea
Height
m
Swell
Dir
 
Speed
knots
Gust
knots
hPa Trend Height
m
Period
s
Dir
19/11:30pm 11.1 SSE 7 10 1026.5 - 0.0 - - - - - - -

Other Formats:

Comma delimited format used in spreadsheet applications
http://www.bom.gov.au/fwo/IDS60701/IDS60701.94826.axf

JavaScript Object Notation format (JSON) in row-major order
http://www.bom.gov.au/fwo/IDS60701/IDS60701.94826.json